sensor_id;sensor_type;location;lat;lon;timestamp;P1;durP1;ratioP1;P2;durP2;ratioP2
68256;SDS011;55069;51.568;4.656;2023-04-10T00:01:19;15.48;;;9.25;;
68256;SDS011;55069;51.568;4.656;2023-04-10T00:03:44;13.27;;;9.17;;
68256;SDS011;55069;51.568;4.656;2023-04-10T00:06:10;14.33;;;9.00;;
68256;SDS011;55069;51.568;4.656;2023-04-10T00:08:35;15.00;;;8.40;;
68256;SDS011;55069;51.568;4.656;2023-04-10T00:11:01;14.00;;;9.37;;
68256;SDS011;55069;51.568;4.656;2023-04-10T00:13:28;12.02;;;8.90;;
68256;SDS011;55069;51.568;4.656;2023-04-10T00:15:54;12.80;;;9.48;;
68256;SDS011;55069;51.568;4.656;2023-04-10T00:18:19;12.47;;;8.77;;
68256;SDS011;55069;51.568;4.656;2023-04-10T00:20:45;14.90;;;9.77;;
68256;SDS011;55069;51.568;4.656;2023-04-10T00:23:11;13.37;;;9.10;;
68256;SDS011;55069;51.568;4.656;2023-04-10T00:25:36;13.13;;;8.98;;
68256;SDS011;55069;51.568;4.656;2023-04-10T00:28:02;16.77;;;9.67;;
68256;SDS011;55069;51.568;4.656;2023-04-10T00:30:31;12.47;;;9.13;;
68256;SDS011;55069;51.568;4.656;2023-04-10T00:32:57;15.05;;;10.20;;
68256;SDS011;55069;51.568;4.656;2023-04-10T00:35:22;15.55;;;9.40;;
68256;SDS011;55069;51.568;4.656;2023-04-10T00:37:48;12.30;;;8.90;;
68256;SDS011;55069;51.568;4.656;2023-04-10T00:40:15;14.98;;;9.45;;
68256;SDS011;55069;51.568;4.656;2023-04-10T00:42:40;15.30;;;9.80;;
68256;SDS011;55069;51.568;4.656;2023-04-10T00:45:07;14.17;;;9.57;;
68256;SDS011;55069;51.568;4.656;2023-04-10T00:47:33;14.07;;;9.43;;
68256;SDS011;55069;51.568;4.656;2023-04-10T00:49:59;14.52;;;10.10;;
68256;SDS011;55069;51.568;4.656;2023-04-10T00:52:25;16.42;;;9.43;;
68256;SDS011;55069;51.568;4.656;2023-04-10T00:54:51;14.98;;;9.45;;
68256;SDS011;55069;51.568;4.656;2023-04-10T00:57:16;14.07;;;9.10;;
68256;SDS011;55069;51.568;4.656;2023-04-10T00:59:42;13.55;;;8.73;;
68256;SDS011;55069;51.568;4.656;2023-04-10T01:02:08;14.73;;;9.80;;
68256;SDS011;55069;51.568;4.656;2023-04-10T01:04:37;14.52;;;8.82;;
68256;SDS011;55069;51.568;4.656;2023-04-10T01:07:37;14.13;;;9.75;;
68256;SDS011;55069;51.568;4.656;2023-04-10T01:15:25;11.97;;;8.90;;
68256;SDS011;55069;51.568;4.656;2023-04-10T01:20:32;14.30;;;9.48;;
68256;SDS011;55069;51.568;4.656;2023-04-10T01:26:07;12.02;;;8.30;;
68256;SDS011;55069;51.568;4.656;2023-04-10T01:34:22;15.25;;;8.65;;
68256;SDS011;55069;51.568;4.656;2023-04-10T01:37:11;11.90;;;8.25;;
68256;SDS011;55069;51.568;4.656;2023-04-10T01:39:40;11.48;;;7.75;;
68256;SDS011;55069;51.568;4.656;2023-04-10T01:42:08;13.23;;;8.67;;
68256;SDS011;55069;51.568;4.656;2023-04-10T01:44:40;11.15;;;7.75;;
68256;SDS011;55069;51.568;4.656;2023-04-10T01:47:07;12.00;;;8.27;;
68256;SDS011;55069;51.568;4.656;2023-04-10T01:49:33;13.40;;;7.83;;
68256;SDS011;55069;51.568;4.656;2023-04-10T01:52:03;11.32;;;7.65;;
68256;SDS011;55069;51.568;4.656;2023-04-10T01:54:31;15.55;;;7.82;;
68256;SDS011;55069;51.568;4.656;2023-04-10T01:57:01;12.38;;;8.00;;
68256;SDS011;55069;51.568;4.656;2023-04-10T01:59:31;11.50;;;7.43;;
68256;SDS011;55069;51.568;4.656;2023-04-10T02:01:58;10.67;;;7.70;;
68256;SDS011;55069;51.568;4.656;2023-04-10T02:04:25;11.77;;;7.50;;
68256;SDS011;55069;51.568;4.656;2023-04-10T02:12:52;10.03;;;6.60;;
68256;SDS011;55069;51.568;4.656;2023-04-10T02:15:22;11.07;;;7.10;;
68256;SDS011;55069;51.568;4.656;2023-04-10T02:17:50;9.88;;;7.07;;
68256;SDS011;55069;51.568;4.656;2023-04-10T02:20:17;9.63;;;7.28;;
68256;SDS011;55069;51.568;4.656;2023-04-10T02:22:44;9.90;;;7.07;;
68256;SDS011;55069;51.568;4.656;2023-04-10T02:25:11;11.93;;;7.47;;
68256;SDS011;55069;51.568;4.656;2023-04-10T02:27:38;11.98;;;7.38;;
68256;SDS011;55069;51.568;4.656;2023-04-10T02:30:04;12.07;;;7.65;;
68256;SDS011;55069;51.568;4.656;2023-04-10T02:32:33;12.20;;;7.07;;
68256;SDS011;55069;51.568;4.656;2023-04-10T02:34:59;10.18;;;7.25;;
68256;SDS011;55069;51.568;4.656;2023-04-10T02:37:25;11.23;;;6.97;;
68256;SDS011;55069;51.568;4.656;2023-04-10T02:39:51;9.83;;;6.37;;
68256;SDS011;55069;51.568;4.656;2023-04-10T02:42:21;11.98;;;7.78;;
68256;SDS011;55069;51.568;4.656;2023-04-10T02:44:49;9.50;;;6.50;;
68256;SDS011;55069;51.568;4.656;2023-04-10T02:47:14;10.18;;;6.78;;
68256;SDS011;55069;51.568;4.656;2023-04-10T02:49:44;10.18;;;6.70;;
68256;SDS011;55069;51.568;4.656;2023-04-10T02:52:13;10.60;;;7.20;;
68256;SDS011;55069;51.568;4.656;2023-04-10T02:54:38;10.70;;;7.30;;
68256;SDS011;55069;51.568;4.656;2023-04-10T02:57:05;10.65;;;6.85;;
68256;SDS011;55069;51.568;4.656;2023-04-10T02:59:31;11.03;;;6.67;;
68256;SDS011;55069;51.568;4.656;2023-04-10T03:01:57;10.32;;;6.57;;
68256;SDS011;55069;51.568;4.656;2023-04-10T03:04:23;8.93;;;6.07;;
68256;SDS011;55069;51.568;4.656;2023-04-10T03:06:48;11.10;;;6.97;;
68256;SDS011;55069;51.568;4.656;2023-04-10T03:09:14;9.10;;;6.77;;
68256;SDS011;55069;51.568;4.656;2023-04-10T03:11:40;9.13;;;6.40;;
68256;SDS011;55069;51.568;4.656;2023-04-10T03:14:06;10.48;;;6.60;;
68256;SDS011;55069;51.568;4.656;2023-04-10T03:16:33;9.80;;;7.10;;
68256;SDS011;55069;51.568;4.656;2023-04-10T03:19:02;10.48;;;6.60;;
68256;SDS011;55069;51.568;4.656;2023-04-10T03:21:27;9.80;;;6.57;;
68256;SDS011;55069;51.568;4.656;2023-04-10T03:23:54;10.45;;;7.60;;
68256;SDS011;55069;51.568;4.656;2023-04-10T03:26:19;10.03;;;6.63;;
68256;SDS011;55069;51.568;4.656;2023-04-10T03:28:45;8.65;;;6.40;;
68256;SDS011;55069;51.568;4.656;2023-04-10T03:31:11;10.37;;;6.97;;
68256;SDS011;55069;51.568;4.656;2023-04-10T03:33:38;10.05;;;6.60;;
68256;SDS011;55069;51.568;4.656;2023-04-10T03:36:05;11.18;;;6.93;;
68256;SDS011;55069;51.568;4.656;2023-04-10T03:38:31;10.05;;;6.60;;
68256;SDS011;55069;51.568;4.656;2023-04-10T03:40:57;8.73;;;6.60;;
68256;SDS011;55069;51.568;4.656;2023-04-10T03:43:26;9.50;;;6.55;;
68256;SDS011;55069;51.568;4.656;2023-04-10T03:45:51;10.20;;;6.70;;
68256;SDS011;55069;51.568;4.656;2023-04-10T03:48:17;8.73;;;6.30;;
68256;SDS011;55069;51.568;4.656;2023-04-10T03:50:44;10.60;;;6.47;;
68256;SDS011;55069;51.568;4.656;2023-04-10T03:53:10;9.75;;;6.25;;
68256;SDS011;55069;51.568;4.656;2023-04-10T03:55:36;9.20;;;6.40;;
68256;SDS011;55069;51.568;4.656;2023-04-10T03:58:04;9.02;;;6.18;;
68256;SDS011;55069;51.568;4.656;2023-04-10T04:00:30;8.95;;;6.40;;
68256;SDS011;55069;51.568;4.656;2023-04-10T04:03:08;9.98;;;6.72;;
68256;SDS011;55069;51.568;4.656;2023-04-10T04:05:56;8.70;;;5.95;;
68256;SDS011;55069;51.568;4.656;2023-04-10T04:08:24;10.40;;;6.70;;
68256;SDS011;55069;51.568;4.656;2023-04-10T04:11:00;10.25;;;6.53;;
68256;SDS011;55069;51.568;4.656;2023-04-10T04:13:35;10.23;;;6.40;;
68256;SDS011;55069;51.568;4.656;2023-04-10T04:16:19;10.25;;;6.88;;
68256;SDS011;55069;51.568;4.656;2023-04-10T04:19:05;9.00;;;6.50;;
68256;SDS011;55069;51.568;4.656;2023-04-10T04:21:37;8.93;;;6.50;;
68256;SDS011;55069;51.568;4.656;2023-04-10T04:24:17;8.48;;;6.10;;
68256;SDS011;55069;51.568;4.656;2023-04-10T04:27:00;9.52;;;6.55;;
68256;SDS011;55069;51.568;4.656;2023-04-10T04:29:45;9.35;;;5.90;;
68256;SDS011;55069;51.568;4.656;2023-04-10T04:32:23;13.13;;;7.25;;
68256;SDS011;55069;51.568;4.656;2023-04-10T04:35:07;9.23;;;5.67;;
68256;SDS011;55069;51.568;4.656;2023-04-10T04:37:53;8.45;;;6.28;;
68256;SDS011;55069;51.568;4.656;2023-04-10T04:40:37;10.93;;;6.60;;
68256;SDS011;55069;51.568;4.656;2023-04-10T04:43:21;9.18;;;6.65;;
68256;SDS011;55069;51.568;4.656;2023-04-10T04:46:13;9.52;;;5.97;;
68256;SDS011;55069;51.568;4.656;2023-04-10T04:48:57;10.37;;;6.53;;
68256;SDS011;55069;51.568;4.656;2023-04-10T04:51:43;8.00;;;5.90;;
68256;SDS011;55069;51.568;4.656;2023-04-10T04:54:24;10.57;;;7.07;;
68256;SDS011;55069;51.568;4.656;2023-04-10T04:57:19;8.90;;;6.22;;
68256;SDS011;55069;51.568;4.656;2023-04-10T05:00:16;10.15;;;6.07;;
68256;SDS011;55069;51.568;4.656;2023-04-10T05:02:48;10.40;;;6.57;;
68256;SDS011;55069;51.568;4.656;2023-04-10T05:05:32;9.18;;;6.00;;
68256;SDS011;55069;51.568;4.656;2023-04-10T05:08:08;11.50;;;6.85;;
68256;SDS011;55069;51.568;4.656;2023-04-10T05:10:42;11.38;;;6.82;;
68256;SDS011;55069;51.568;4.656;2023-04-10T05:13:31;8.88;;;6.78;;
68256;SDS011;55069;51.568;4.656;2023-04-10T05:16:15;9.23;;;6.23;;
68256;SDS011;55069;51.568;4.656;2023-04-10T05:19:09;10.15;;;6.30;;
68256;SDS011;55069;51.568;4.656;2023-04-10T05:21:52;9.27;;;6.22;;
68256;SDS011;55069;51.568;4.656;2023-04-10T05:24:36;9.88;;;6.57;;
68256;SDS011;55069;51.568;4.656;2023-04-10T05:27:34;8.90;;;6.30;;
68256;SDS011;55069;51.568;4.656;2023-04-10T05:30:18;9.10;;;6.70;;
68256;SDS011;55069;51.568;4.656;2023-04-10T05:33:02;9.68;;;6.95;;
68256;SDS011;55069;51.568;4.656;2023-04-10T05:36:03;11.18;;;7.32;;
68256;SDS011;55069;51.568;4.656;2023-04-10T05:38:40;10.48;;;7.00;;
68256;SDS011;55069;51.568;4.656;2023-04-10T05:41:26;10.55;;;7.03;;
68256;SDS011;55069;51.568;4.656;2023-04-10T05:44:10;9.47;;;7.00;;
68256;SDS011;55069;51.568;4.656;2023-04-10T05:46:56;9.35;;;6.75;;
68256;SDS011;55069;51.568;4.656;2023-04-10T05:49:32;10.18;;;7.20;;
68256;SDS011;55069;51.568;4.656;2023-04-10T05:52:10;8.63;;;6.38;;
68256;SDS011;55069;51.568;4.656;2023-04-10T05:54:41;10.45;;;6.60;;
68256;SDS011;55069;51.568;4.656;2023-04-10T05:57:25;9.37;;;6.80;;
68256;SDS011;55069;51.568;4.656;2023-04-10T06:00:03;12.52;;;6.90;;
68256;SDS011;55069;51.568;4.656;2023-04-10T06:03:04;8.30;;;6.18;;
68256;SDS011;55069;51.568;4.656;2023-04-10T06:05:31;10.75;;;7.03;;
68256;SDS011;55069;51.568;4.656;2023-04-10T06:08:01;10.02;;;7.25;;
68256;SDS011;55069;51.568;4.656;2023-04-10T06:10:28;14.00;;;6.37;;
68256;SDS011;55069;51.568;4.656;2023-04-10T06:12:55;11.43;;;7.32;;
68256;SDS011;55069;51.568;4.656;2023-04-10T06:15:22;11.75;;;7.22;;
68256;SDS011;55069;51.568;4.656;2023-04-10T06:17:48;13.43;;;7.00;;
68256;SDS011;55069;51.568;4.656;2023-04-10T06:20:13;8.60;;;6.15;;
68256;SDS011;55069;51.568;4.656;2023-04-10T06:22:39;9.33;;;6.13;;
68256;SDS011;55069;51.568;4.656;2023-04-10T06:25:05;10.98;;;6.85;;
68256;SDS011;55069;51.568;4.656;2023-04-10T06:27:32;11.40;;;6.70;;
68256;SDS011;55069;51.568;4.656;2023-04-10T06:30:00;11.20;;;6.90;;
68256;SDS011;55069;51.568;4.656;2023-04-10T06:32:25;10.00;;;6.88;;
68256;SDS011;55069;51.568;4.656;2023-04-10T06:34:51;13.40;;;6.72;;
68256;SDS011;55069;51.568;4.656;2023-04-10T06:37:17;10.33;;;6.80;;
68256;SDS011;55069;51.568;4.656;2023-04-10T06:39:43;10.13;;;6.75;;
68256;SDS011;55069;51.568;4.656;2023-04-10T06:42:08;10.47;;;6.70;;
68256;SDS011;55069;51.568;4.656;2023-04-10T06:45:00;9.98;;;7.20;;
68256;SDS011;55069;51.568;4.656;2023-04-10T06:47:26;9.57;;;6.68;;
68256;SDS011;55069;51.568;4.656;2023-04-10T06:49:52;8.53;;;6.30;;
68256;SDS011;55069;51.568;4.656;2023-04-10T06:52:18;10.13;;;6.57;;
68256;SDS011;55069;51.568;4.656;2023-04-10T06:54:44;10.27;;;6.80;;
68256;SDS011;55069;51.568;4.656;2023-04-10T06:57:09;8.93;;;6.78;;
68256;SDS011;55069;51.568;4.656;2023-04-10T06:59:35;9.10;;;6.63;;
68256;SDS011;55069;51.568;4.656;2023-04-10T07:02:01;9.23;;;6.70;;
68256;SDS011;55069;51.568;4.656;2023-04-10T07:04:27;11.82;;;7.10;;
68256;SDS011;55069;51.568;4.656;2023-04-10T07:06:53;9.43;;;6.50;;
68256;SDS011;55069;51.568;4.656;2023-04-10T07:09:19;9.73;;;6.20;;
68256;SDS011;55069;51.568;4.656;2023-04-10T07:11:44;9.05;;;6.40;;
68256;SDS011;55069;51.568;4.656;2023-04-10T07:14:10;12.30;;;6.63;;
68256;SDS011;55069;51.568;4.656;2023-04-10T07:16:35;9.18;;;6.30;;
68256;SDS011;55069;51.568;4.656;2023-04-10T07:19:01;12.53;;;6.70;;
68256;SDS011;55069;51.568;4.656;2023-04-10T07:21:27;9.15;;;6.80;;
68256;SDS011;55069;51.568;4.656;2023-04-10T07:23:53;11.20;;;6.00;;
68256;SDS011;55069;51.568;4.656;2023-04-10T07:26:19;9.10;;;6.60;;
68256;SDS011;55069;51.568;4.656;2023-04-10T07:28:44;9.17;;;6.60;;
68256;SDS011;55069;51.568;4.656;2023-04-10T07:31:10;9.15;;;5.95;;
68256;SDS011;55069;51.568;4.656;2023-04-10T07:33:37;9.65;;;6.10;;
68256;SDS011;55069;51.568;4.656;2023-04-10T07:36:03;9.27;;;6.28;;
68256;SDS011;55069;51.568;4.656;2023-04-10T07:38:33;9.25;;;5.78;;
68256;SDS011;55069;51.568;4.656;2023-04-10T07:40:58;11.27;;;6.68;;
68256;SDS011;55069;51.568;4.656;2023-04-10T07:43:24;8.67;;;5.87;;
68256;SDS011;55069;51.568;4.656;2023-04-10T07:45:50;10.23;;;6.78;;
68256;SDS011;55069;51.568;4.656;2023-04-10T07:48:17;10.27;;;5.90;;
68256;SDS011;55069;51.568;4.656;2023-04-10T07:50:42;9.33;;;6.90;;
68256;SDS011;55069;51.568;4.656;2023-04-10T07:53:08;9.77;;;6.60;;
68256;SDS011;55069;51.568;4.656;2023-04-10T07:55:52;8.83;;;6.20;;
68256;SDS011;55069;51.568;4.656;2023-04-10T07:58:17;8.13;;;6.32;;
68256;SDS011;55069;51.568;4.656;2023-04-10T08:00:43;10.13;;;6.22;;
68256;SDS011;55069;51.568;4.656;2023-04-10T08:03:10;9.32;;;6.40;;
68256;SDS011;55069;51.568;4.656;2023-04-10T08:05:37;9.88;;;6.63;;
68256;SDS011;55069;51.568;4.656;2023-04-10T08:08:02;9.07;;;6.60;;
68256;SDS011;55069;51.568;4.656;2023-04-10T08:10:28;9.17;;;6.30;;
68256;SDS011;55069;51.568;4.656;2023-04-10T08:12:53;9.73;;;6.18;;
68256;SDS011;55069;51.568;4.656;2023-04-10T08:15:19;8.52;;;6.65;;
68256;SDS011;55069;51.568;4.656;2023-04-10T08:17:45;9.85;;;6.30;;
68256;SDS011;55069;51.568;4.656;2023-04-10T08:20:11;8.93;;;7.13;;
68256;SDS011;55069;51.568;4.656;2023-04-10T08:22:37;9.55;;;7.20;;
68256;SDS011;55069;51.568;4.656;2023-04-10T08:25:03;10.10;;;6.67;;
68256;SDS011;55069;51.568;4.656;2023-04-10T08:27:29;11.60;;;6.80;;
68256;SDS011;55069;51.568;4.656;2023-04-10T08:29:55;11.43;;;6.30;;
68256;SDS011;55069;51.568;4.656;2023-04-10T08:32:21;9.82;;;7.20;;
68256;SDS011;55069;51.568;4.656;2023-04-10T08:34:50;9.55;;;6.75;;
68256;SDS011;55069;51.568;4.656;2023-04-10T08:37:15;10.15;;;6.95;;
68256;SDS011;55069;51.568;4.656;2023-04-10T08:39:41;8.98;;;6.63;;
68256;SDS011;55069;51.568;4.656;2023-04-10T08:42:06;8.30;;;6.27;;
68256;SDS011;55069;51.568;4.656;2023-04-10T08:44:32;11.63;;;6.07;;
68256;SDS011;55069;51.568;4.656;2023-04-10T08:47:00;8.05;;;5.85;;
68256;SDS011;55069;51.568;4.656;2023-04-10T08:52:25;8.55;;;5.53;;
68256;SDS011;55069;51.568;4.656;2023-04-10T08:54:54;8.65;;;6.10;;
68256;SDS011;55069;51.568;4.656;2023-04-10T08:57:21;9.57;;;5.63;;
68256;SDS011;55069;51.568;4.656;2023-04-10T08:59:48;8.43;;;6.10;;
68256;SDS011;55069;51.568;4.656;2023-04-10T09:02:15;8.98;;;6.20;;
68256;SDS011;55069;51.568;4.656;2023-04-10T09:04:49;10.18;;;6.18;;
68256;SDS011;55069;51.568;4.656;2023-04-10T09:07:16;7.43;;;5.60;;
68256;SDS011;55069;51.568;4.656;2023-04-10T09:09:42;7.43;;;6.30;;
68256;SDS011;55069;51.568;4.656;2023-04-10T09:12:09;8.18;;;6.50;;
68256;SDS011;55069;51.568;4.656;2023-04-10T09:14:35;13.00;;;6.43;;
68256;SDS011;55069;51.568;4.656;2023-04-10T09:17:20;8.52;;;6.10;;
68256;SDS011;55069;51.568;4.656;2023-04-10T09:19:47;12.75;;;6.75;;
68256;SDS011;55069;51.568;4.656;2023-04-10T09:22:16;10.43;;;6.37;;
68256;SDS011;55069;51.568;4.656;2023-04-10T09:24:44;10.13;;;6.00;;
68256;SDS011;55069;51.568;4.656;2023-04-10T09:27:11;7.55;;;5.93;;
68256;SDS011;55069;51.568;4.656;2023-04-10T09:29:52;7.68;;;5.70;;
68256;SDS011;55069;51.568;4.656;2023-04-10T09:35:06;8.55;;;6.40;;
68256;SDS011;55069;51.568;4.656;2023-04-10T09:37:34;7.13;;;5.68;;
68256;SDS011;55069;51.568;4.656;2023-04-10T09:40:00;6.55;;;5.53;;
68256;SDS011;55069;51.568;4.656;2023-04-10T09:42:36;7.53;;;5.93;;
68256;SDS011;55069;51.568;4.656;2023-04-10T09:45:03;7.97;;;5.60;;
68256;SDS011;55069;51.568;4.656;2023-04-10T09:47:29;8.43;;;5.72;;
68256;SDS011;55069;51.568;4.656;2023-04-10T09:49:55;8.38;;;6.22;;
68256;SDS011;55069;51.568;4.656;2023-04-10T09:52:32;9.03;;;6.00;;
68256;SDS011;55069;51.568;4.656;2023-04-10T09:55:05;6.85;;;5.50;;
68256;SDS011;55069;51.568;4.656;2023-04-10T09:57:33;7.68;;;5.75;;
68256;SDS011;55069;51.568;4.656;2023-04-10T10:00:00;8.07;;;5.60;;
68256;SDS011;55069;51.568;4.656;2023-04-10T10:02:33;10.27;;;5.75;;
68256;SDS011;55069;51.568;4.656;2023-04-10T10:05:01;7.77;;;5.83;;
68256;SDS011;55069;51.568;4.656;2023-04-10T10:07:29;14.63;;;6.13;;
68256;SDS011;55069;51.568;4.656;2023-04-10T10:09:55;8.82;;;5.72;;
68256;SDS011;55069;51.568;4.656;2023-04-10T10:15:06;7.80;;;5.90;;
68256;SDS011;55069;51.568;4.656;2023-04-10T10:17:44;7.93;;;5.37;;
68256;SDS011;55069;51.568;4.656;2023-04-10T10:20:27;10.88;;;6.30;;
68256;SDS011;55069;51.568;4.656;2023-04-10T10:22:55;7.93;;;5.68;;
68256;SDS011;55069;51.568;4.656;2023-04-10T10:25:23;12.77;;;6.32;;
68256;SDS011;55069;51.568;4.656;2023-04-10T10:27:50;8.57;;;5.80;;
68256;SDS011;55069;51.568;4.656;2023-04-10T10:30:18;6.90;;;5.33;;
68256;SDS011;55069;51.568;4.656;2023-04-10T10:32:45;7.50;;;5.93;;
68256;SDS011;55069;51.568;4.656;2023-04-10T10:35:13;7.68;;;5.70;;
68256;SDS011;55069;51.568;4.656;2023-04-10T10:37:40;8.48;;;5.63;;
68256;SDS011;55069;51.568;4.656;2023-04-10T10:45:24;13.13;;;5.95;;
68256;SDS011;55069;51.568;4.656;2023-04-10T10:47:55;7.65;;;6.03;;
68256;SDS011;55069;51.568;4.656;2023-04-10T10:50:21;8.37;;;6.00;;
68256;SDS011;55069;51.568;4.656;2023-04-10T10:57:47;10.45;;;5.97;;
68256;SDS011;55069;51.568;4.656;2023-04-10T11:00:14;6.50;;;5.80;;
68256;SDS011;55069;51.568;4.656;2023-04-10T11:02:40;8.95;;;5.75;;
68256;SDS011;55069;51.568;4.656;2023-04-10T11:05:06;7.85;;;5.57;;
68256;SDS011;55069;51.568;4.656;2023-04-10T11:13:23;7.65;;;5.35;;
68256;SDS011;55069;51.568;4.656;2023-04-10T11:15:50;6.87;;;5.50;;
68256;SDS011;55069;51.568;4.656;2023-04-10T11:18:16;12.10;;;5.88;;
68256;SDS011;55069;51.568;4.656;2023-04-10T11:23:33;6.22;;;4.43;;
68256;SDS011;55069;51.568;4.656;2023-04-10T11:26:00;6.57;;;4.63;;
68256;SDS011;55069;51.568;4.656;2023-04-10T11:33:40;5.43;;;4.55;;
68256;SDS011;55069;51.568;4.656;2023-04-10T11:36:06;7.13;;;4.77;;
68256;SDS011;55069;51.568;4.656;2023-04-10T11:38:32;6.88;;;4.90;;
68256;SDS011;55069;51.568;4.656;2023-04-10T11:40:59;7.93;;;5.03;;
68256;SDS011;55069;51.568;4.656;2023-04-10T11:43:26;7.27;;;5.00;;
68256;SDS011;55069;51.568;4.656;2023-04-10T11:46:03;6.18;;;4.53;;
68256;SDS011;55069;51.568;4.656;2023-04-10T11:48:30;8.23;;;4.72;;
68256;SDS011;55069;51.568;4.656;2023-04-10T11:50:56;6.57;;;4.70;;
68256;SDS011;55069;51.568;4.656;2023-04-10T11:53:22;14.27;;;4.83;;
68256;SDS011;55069;51.568;4.656;2023-04-10T11:55:48;6.15;;;4.55;;
68256;SDS011;55069;51.568;4.656;2023-04-10T11:58:23;5.97;;;4.47;;
68256;SDS011;55069;51.568;4.656;2023-04-10T12:01:00;5.40;;;4.28;;
68256;SDS011;55069;51.568;4.656;2023-04-10T12:05:57;5.80;;;4.43;;
68256;SDS011;55069;51.568;4.656;2023-04-10T12:08:29;6.07;;;4.30;;
68256;SDS011;55069;51.568;4.656;2023-04-10T12:10:58;6.18;;;4.78;;
68256;SDS011;55069;51.568;4.656;2023-04-10T12:13:25;5.30;;;4.40;;
68256;SDS011;55069;51.568;4.656;2023-04-10T12:15:52;8.35;;;4.93;;
68256;SDS011;55069;51.568;4.656;2023-04-10T12:18:19;6.07;;;4.30;;
68256;SDS011;55069;51.568;4.656;2023-04-10T12:20:46;6.50;;;4.10;;
68256;SDS011;55069;51.568;4.656;2023-04-10T12:23:12;6.25;;;4.47;;
68256;SDS011;55069;51.568;4.656;2023-04-10T12:25:38;6.45;;;4.07;;
68256;SDS011;55069;51.568;4.656;2023-04-10T12:28:03;5.53;;;4.68;;
68256;SDS011;55069;51.568;4.656;2023-04-10T12:30:29;5.25;;;4.18;;
68256;SDS011;55069;51.568;4.656;2023-04-10T12:32:55;5.77;;;4.50;;
68256;SDS011;55069;51.568;4.656;2023-04-10T12:35:36;6.13;;;4.18;;
68256;SDS011;55069;51.568;4.656;2023-04-10T12:38:06;5.88;;;4.20;;
68256;SDS011;55069;51.568;4.656;2023-04-10T12:40:32;8.77;;;4.83;;
68256;SDS011;55069;51.568;4.656;2023-04-10T12:42:58;5.78;;;4.90;;
68256;SDS011;55069;51.568;4.656;2023-04-10T12:45:42;6.77;;;4.33;;
68256;SDS011;55069;51.568;4.656;2023-04-10T12:48:08;7.15;;;4.82;;
68256;SDS011;55069;51.568;4.656;2023-04-10T12:50:44;12.25;;;4.60;;
68256;SDS011;55069;51.568;4.656;2023-04-10T12:53:15;7.33;;;4.77;;
68256;SDS011;55069;51.568;4.656;2023-04-10T12:55:41;7.07;;;4.80;;
68256;SDS011;55069;51.568;4.656;2023-04-10T12:58:30;6.70;;;4.45;;
68256;SDS011;55069;51.568;4.656;2023-04-10T13:00:58;7.40;;;4.50;;
68256;SDS011;55069;51.568;4.656;2023-04-10T13:03:26;9.77;;;4.03;;
68256;SDS011;55069;51.568;4.656;2023-04-10T13:05:52;4.90;;;3.70;;
68256;SDS011;55069;51.568;4.656;2023-04-10T13:08:18;4.97;;;4.05;;
68256;SDS011;55069;51.568;4.656;2023-04-10T13:10:45;7.68;;;3.67;;
68256;SDS011;55069;51.568;4.656;2023-04-10T13:13:11;5.18;;;4.05;;
68256;SDS011;55069;51.568;4.656;2023-04-10T13:15:38;4.82;;;3.40;;
68256;SDS011;55069;51.568;4.656;2023-04-10T13:18:03;6.68;;;3.42;;
68256;SDS011;55069;51.568;4.656;2023-04-10T13:20:33;7.03;;;3.07;;
68256;SDS011;55069;51.568;4.656;2023-04-10T13:23:00;4.30;;;3.25;;
68256;SDS011;55069;51.568;4.656;2023-04-10T13:25:32;6.25;;;3.65;;
68256;SDS011;55069;51.568;4.656;2023-04-10T13:28:01;3.78;;;3.38;;
68256;SDS011;55069;51.568;4.656;2023-04-10T13:30:28;6.90;;;3.72;;
68256;SDS011;55069;51.568;4.656;2023-04-10T13:32:53;4.07;;;3.40;;
68256;SDS011;55069;51.568;4.656;2023-04-10T13:35:19;5.13;;;3.97;;
68256;SDS011;55069;51.568;4.656;2023-04-10T13:37:46;5.63;;;3.80;;
68256;SDS011;55069;51.568;4.656;2023-04-10T13:40:12;6.40;;;4.55;;
68256;SDS011;55069;51.568;4.656;2023-04-10T13:42:37;5.25;;;4.22;;
68256;SDS011;55069;51.568;4.656;2023-04-10T13:45:03;5.00;;;3.77;;
68256;SDS011;55069;51.568;4.656;2023-04-10T13:47:29;6.03;;;4.18;;
68256;SDS011;55069;51.568;4.656;2023-04-10T13:49:55;6.57;;;4.10;;
68256;SDS011;55069;51.568;4.656;2023-04-10T13:52:20;4.95;;;3.75;;
68256;SDS011;55069;51.568;4.656;2023-04-10T13:54:46;6.83;;;4.47;;
68256;SDS011;55069;51.568;4.656;2023-04-10T13:57:11;5.90;;;4.27;;
68256;SDS011;55069;51.568;4.656;2023-04-10T13:59:37;4.97;;;4.47;;
68256;SDS011;55069;51.568;4.656;2023-04-10T14:02:03;6.80;;;4.80;;
68256;SDS011;55069;51.568;4.656;2023-04-10T14:04:29;9.30;;;4.60;;
68256;SDS011;55069;51.568;4.656;2023-04-10T14:06:54;6.03;;;4.77;;
68256;SDS011;55069;51.568;4.656;2023-04-10T14:09:22;7.80;;;4.85;;
68256;SDS011;55069;51.568;4.656;2023-04-10T14:11:48;6.78;;;4.97;;
68256;SDS011;55069;51.568;4.656;2023-04-10T14:14:14;6.63;;;4.70;;
68256;SDS011;55069;51.568;4.656;2023-04-10T14:16:40;5.47;;;4.88;;
68256;SDS011;55069;51.568;4.656;2023-04-10T14:19:05;6.03;;;4.97;;
68256;SDS011;55069;51.568;4.656;2023-04-10T14:21:31;6.13;;;5.47;;
68256;SDS011;55069;51.568;4.656;2023-04-10T14:23:57;7.40;;;5.47;;
68256;SDS011;55069;51.568;4.656;2023-04-10T14:26:23;6.05;;;4.68;;
68256;SDS011;55069;51.568;4.656;2023-04-10T14:28:50;6.38;;;5.28;;
68256;SDS011;55069;51.568;4.656;2023-04-10T14:31:16;6.50;;;5.05;;
68256;SDS011;55069;51.568;4.656;2023-04-10T14:33:42;9.53;;;4.93;;
68256;SDS011;55069;51.568;4.656;2023-04-10T14:36:08;5.93;;;4.72;;
68256;SDS011;55069;51.568;4.656;2023-04-10T14:38:34;6.00;;;4.37;;
68256;SDS011;55069;51.568;4.656;2023-04-10T14:41:01;8.73;;;5.40;;
68256;SDS011;55069;51.568;4.656;2023-04-10T14:43:26;6.45;;;5.13;;
68256;SDS011;55069;51.568;4.656;2023-04-10T14:45:52;11.83;;;5.00;;
68256;SDS011;55069;51.568;4.656;2023-04-10T14:48:18;7.30;;;4.70;;
68256;SDS011;55069;51.568;4.656;2023-04-10T14:50:45;7.63;;;4.65;;
68256;SDS011;55069;51.568;4.656;2023-04-10T14:53:11;4.60;;;4.10;;
68256;SDS011;55069;51.568;4.656;2023-04-10T14:55:37;5.57;;;4.50;;
68256;SDS011;55069;51.568;4.656;2023-04-10T14:58:02;7.53;;;4.20;;
68256;SDS011;55069;51.568;4.656;2023-04-10T15:00:31;6.38;;;4.53;;
68256;SDS011;55069;51.568;4.656;2023-04-10T15:02:57;6.00;;;4.57;;
68256;SDS011;55069;51.568;4.656;2023-04-10T15:05:23;7.00;;;4.60;;
68256;SDS011;55069;51.568;4.656;2023-04-10T15:07:49;6.35;;;4.63;;
68256;SDS011;55069;51.568;4.656;2023-04-10T15:10:15;8.40;;;5.18;;
68256;SDS011;55069;51.568;4.656;2023-04-10T15:12:41;7.33;;;5.40;;
68256;SDS011;55069;51.568;4.656;2023-04-10T15:15:06;9.00;;;5.65;;
68256;SDS011;55069;51.568;4.656;2023-04-10T15:17:33;8.57;;;5.45;;
68256;SDS011;55069;51.568;4.656;2023-04-10T15:19:58;7.10;;;5.90;;
68256;SDS011;55069;51.568;4.656;2023-04-10T15:22:24;9.75;;;5.97;;
68256;SDS011;55069;51.568;4.656;2023-04-10T15:24:50;9.63;;;6.00;;
68256;SDS011;55069;51.568;4.656;2023-04-10T15:27:19;8.27;;;6.13;;
68256;SDS011;55069;51.568;4.656;2023-04-10T15:29:45;9.80;;;7.33;;
68256;SDS011;55069;51.568;4.656;2023-04-10T15:32:11;13.13;;;7.30;;
68256;SDS011;55069;51.568;4.656;2023-04-10T15:34:37;12.48;;;8.05;;
68256;SDS011;55069;51.568;4.656;2023-04-10T15:37:03;13.02;;;8.20;;
68256;SDS011;55069;51.568;4.656;2023-04-10T15:39:28;11.68;;;7.85;;
68256;SDS011;55069;51.568;4.656;2023-04-10T15:41:55;11.27;;;8.27;;
68256;SDS011;55069;51.568;4.656;2023-04-10T15:44:24;15.02;;;8.90;;
68256;SDS011;55069;51.568;4.656;2023-04-10T15:46:50;11.95;;;8.73;;
68256;SDS011;55069;51.568;4.656;2023-04-10T15:49:17;10.20;;;8.02;;
68256;SDS011;55069;51.568;4.656;2023-04-10T15:51:45;10.95;;;8.02;;
68256;SDS011;55069;51.568;4.656;2023-04-10T15:54:10;11.97;;;9.03;;